PAVD METAR and TAF weather

Enter ICAO airport designator
Station Type Date Time Source
PAVD METAR 2024/04/18 05:56 UTC NOAA

PAVD 180556Z 00000KT 10SM OVC120 03/M03 A3054 RMK AO2 SLP341 T00281028 10061 20022 53010 $


Station Type Date Time Source
PAVD Decoded METAR 2024/04/18 05:56 UTC NOAA

Valdez 2, AK, United States (PAVD) 61-08N 146-16W
Apr 18, 2024 - 01:56 AM EDT / 2024.04.18 0556 UTC
Wind: Calm:0
Visibility: 10 mile(s):0
Sky conditions: overcast
Temperature: 37.0 F (2.8 C)
Dew Point: 27.0 F (-2.8 C)
Relative Humidity: 66%
Pressure (altimeter): 30.54 in. Hg (1034 hPa)
Pressure tendency: 0.03 inches (1.0 hPa) higher than three hours ago
ob: PAVD 180556Z 00000KT 10SM OVC120 03/M03 A3054 RMK AO2 SLP341 T00281028 10061 20022 53010
cycle: 6

Station Type Date Time Source
PAVD TAF 2024/04/18 06:48 UTC NOAA